MSR1015 HESH-HECA
Flight info
| Callsign | MSR1015 |
|---|---|
| Flight time | N/A |
| Altitude | 32000 |
| Route | KUPTI1L KUPTI DCT RASMI DCT ALPID DCT 295142N0310949E DCT CF05C |
| Aircraft | A339/H-SADE1E2E3GHIJ3J5M1P2RWXY/LB2D1 |
Departure
| Time | 2026-05-07 16:45 |
|---|---|
| Airport | Sharm El Sheikh International Airport (HESH) |
Arrival
| Time | N/A |
|---|---|
| Airport | Cairo International Airport (HECA) |
| Time | Latitude | Longitude | Altitude | Speed | Heading |
|---|---|---|---|---|---|
| 2026-05-07 16:28 | 27.98086 | 34.39117 | 178 ft | 0 kts | 313° |
| 2026-05-07 16:38 | 27.98089 | 34.39113 | 178 ft | 1 kts | 313° |
| 2026-05-07 16:38 | 27.98093 | 34.39105 | 178 ft | 2 kts | 304° |
| 2026-05-07 16:38 | 27.98094 | 34.39103 | 178 ft | 0 kts | 301° |
| 2026-05-07 16:40 | 27.98096 | 34.39099 | 178 ft | 2 kts | 301° |
| 2026-05-07 16:40 | 27.98098 | 34.39083 | 178 ft | 2 kts | 274° |
| 2026-05-07 16:40 | 27.98091 | 34.39076 | 178 ft | 1 kts | 238° |
| 2026-05-07 16:41 | 27.98067 | 34.39037 | 178 ft | 13 kts | 238° |
| 2026-05-07 16:41 | 27.97984 | 34.38910 | 178 ft | 27 kts | 226° |
| 2026-05-07 16:41 | 27.97824 | 34.38727 | 178 ft | 39 kts | 223° |
| 2026-05-07 16:41 | 27.97591 | 34.38506 | 178 ft | 49 kts | 218° |
| 2026-05-07 16:42 | 27.97282 | 34.38309 | 178 ft | 49 kts | 207° |
| 2026-05-07 16:42 | 27.97056 | 34.38171 | 178 ft | 31 kts | 214° |
| 2026-05-07 16:42 | 27.96929 | 34.38169 | 179 ft | 20 kts | 137° |
| 2026-05-07 16:42 | 27.96902 | 34.38307 | 179 ft | 19 kts | 72° |
| 2026-05-07 16:43 | 27.96981 | 34.38391 | 179 ft | 14 kts | 70° |
| 2026-05-07 16:43 | 27.96995 | 34.38406 | 180 ft | 3 kts | 35° |
| 2026-05-07 16:43 | 27.97028 | 34.38437 | 180 ft | 0 kts | 40° |
| 2026-05-07 16:44 | 27.97040 | 34.38448 | 180 ft | 17 kts | 40° |
| 2026-05-07 16:44 | 27.97389 | 34.38797 | 179 ft | 115 kts | 42° |
| 2026-05-07 16:44 | 27.98153 | 34.39614 | 201 ft | 187 kts | 42° |
| 2026-05-07 16:45 | 27.99167 | 34.40729 | 723 ft | 206 kts | 43° |
| 2026-05-07 16:45 | 28.00198 | 34.41837 | 1867 ft | 200 kts | 33° |
| 2026-05-07 16:45 | 28.01435 | 34.42594 | 2771 ft | 208 kts | 21° |
| 2026-05-07 16:45 | 28.02852 | 34.43201 | 3214 ft | 229 kts | 17° |
| 2026-05-07 16:46 | 28.04421 | 34.43837 | 3578 ft | 250 kts | 19° |
| 2026-05-07 16:46 | 28.06090 | 34.44624 | 3894 ft | 267 kts | 21° |
| 2026-05-07 16:46 | 28.07794 | 34.45500 | 4556 ft | 270 kts | 24° |
| 2026-05-07 16:46 | 28.09506 | 34.46427 | 5214 ft | 274 kts | 25° |